createdAt,value
2019-06-26T00:01:10.342Z,95741.06
2019-06-26T00:03:42.710Z,95736.97
2019-06-26T00:06:14.920Z,95732.11
2019-06-26T00:08:47.350Z,95735.08
2019-06-26T00:11:19.389Z,95732.61
2019-06-26T00:13:51.770Z,95720.15
2019-06-26T00:16:24.111Z,95725.80
2019-06-26T00:18:56.511Z,95728.47
2019-06-26T00:21:29.869Z,95723.63
2019-06-26T00:24:02.358Z,95730.64
2019-06-26T00:26:34.842Z,95734.38
2019-06-26T00:29:07.288Z,95742.45
2019-06-26T00:31:39.540Z,95733.84
2019-06-26T00:34:12.089Z,95736.80
2019-06-26T00:36:44.327Z,95729.09
2019-06-26T00:39:16.478Z,95734.81
2019-06-26T00:41:48.733Z,95736.45
2019-06-26T00:44:21.145Z,95735.42
2019-06-26T00:46:53.437Z,95753.17
2019-06-26T00:49:25.872Z,95745.11
2019-06-26T00:51:58.386Z,95746.78
2019-06-26T00:54:30.690Z,95748.66
2019-06-26T00:57:03.103Z,95749.78
2019-06-26T00:59:35.697Z,95744.41
2019-06-26T01:02:08.362Z,95739.08
2019-06-26T01:04:42.990Z,95745.27
2019-06-26T01:07:15.422Z,95751.48
2019-06-26T01:09:47.897Z,95749.61
2019-06-26T01:12:20.502Z,95752.03
2019-06-26T01:14:52.980Z,95747.73
2019-06-26T01:17:25.779Z,95739.61
2019-06-26T01:19:58.190Z,95753.06
2019-06-26T01:22:30.660Z,95753.05
2019-06-26T01:25:02.937Z,95751.98
2019-06-26T01:27:37.008Z,95745.03
2019-06-26T01:30:09.621Z,95746.66
2019-06-26T01:32:42.357Z,95746.12
2019-06-26T01:35:14.716Z,95749.07
2019-06-26T01:37:46.853Z,95747.77
2019-06-26T01:40:20.589Z,95751.75
2019-06-26T01:42:53.162Z,95738.09
2019-06-26T01:45:25.692Z,95734.13
2019-06-26T01:47:57.991Z,95738.94
2019-06-26T01:50:30.492Z,95733.52
2019-06-26T01:53:02.685Z,95736.78
2019-06-26T01:55:34.832Z,95739.75
2019-06-26T01:58:07.656Z,95736.82
2019-06-26T02:00:39.999Z,95741.92
2019-06-26T02:03:12.327Z,95740.81
2019-06-26T02:05:44.492Z,95745.66
2019-06-26T02:08:16.881Z,95751.57
2019-06-26T02:10:49.217Z,95749.95
2019-06-26T02:13:21.454Z,95749.42
2019-06-26T02:15:53.891Z,95743.81
2019-06-26T02:18:48.642Z,95746.19
2019-06-26T02:21:21.397Z,95755.90
2019-06-26T02:23:53.890Z,95752.44
2019-06-26T02:26:26.255Z,95754.83
2019-06-26T02:28:58.839Z,95758.02
2019-06-26T02:31:31.398Z,95762.05
2019-06-26T02:34:03.955Z,95754.26
2019-06-26T02:36:36.341Z,95757.78
2019-06-26T02:39:09.762Z,95753.98
2019-06-26T02:41:42.359Z,95758.55
2019-06-26T02:44:14.587Z,95755.63
2019-06-26T02:46:47.129Z,95759.66
2019-06-26T02:49:19.829Z,95754.02
2019-06-26T02:51:51.679Z,95756.70
2019-06-26T02:54:23.938Z,95762.89
2019-06-26T02:56:56.587Z,95751.60
2019-06-26T02:59:28.977Z,95745.69
2019-06-26T03:02:00.914Z,95745.69
2019-06-26T03:04:32.899Z,95749.98
2019-06-26T03:07:05.102Z,95753.52
2019-06-26T03:09:37.390Z,95751.62
2019-06-26T03:12:09.663Z,95755.36
2019-06-26T03:14:41.777Z,95755.90
2019-06-26T03:17:13.782Z,95750.80
2019-06-26T03:19:47.095Z,95748.91
2019-06-26T03:22:19.473Z,95751.06
2019-06-26T03:24:51.693Z,95747.27
2019-06-26T03:27:24.010Z,95747.00
2019-06-26T03:29:59.907Z,95749.69
2019-06-26T03:32:32.181Z,95755.60
2019-06-26T03:35:04.512Z,95747.57
2019-06-26T03:37:36.707Z,95752.95
2019-06-26T03:40:09.245Z,95759.16
2019-06-26T03:42:41.500Z,95758.34
2019-06-26T03:45:25.103Z,95759.12
2019-06-26T03:47:48.594Z,95762.08
2019-06-26T03:50:20.959Z,95761.28
2019-06-26T03:52:53.164Z,95758.28
2019-06-26T03:55:25.608Z,95753.14
2019-06-26T03:57:57.849Z,95758.20
2019-06-26T04:00:40.115Z,95761.66
2019-06-26T04:03:12.827Z,95761.58
2019-06-26T04:05:45.038Z,95757.50
2019-06-26T04:08:16.941Z,95754.81
2019-06-26T04:10:49.264Z,95759.38
2019-06-26T04:13:21.620Z,95765.33
2019-06-26T04:15:54.051Z,95759.95
2019-06-26T04:18:26.387Z,95768.59
2019-06-26T04:20:58.594Z,95773.13
2019-06-26T04:23:31.021Z,95778.27
2019-06-26T04:26:02.911Z,95778.48
2019-06-26T04:28:35.133Z,95788.95
2019-06-26T04:31:07.182Z,95784.88
2019-06-26T04:33:39.587Z,95782.99
2019-06-26T04:36:13.017Z,95780.63
2019-06-26T04:38:45.471Z,95786.49
2019-06-26T04:41:17.667Z,95786.91
2019-06-26T04:43:49.803Z,95785.45
2019-06-26T04:46:21.945Z,95782.87
2019-06-26T04:48:54.227Z,95791.33
2019-06-26T04:51:26.303Z,95787.98
2019-06-26T04:53:58.188Z,95785.84
2019-06-26T04:56:30.859Z,95790.90
2019-06-26T04:59:03.018Z,95783.28
2019-06-26T05:01:35.290Z,95784.56
2019-06-26T05:04:07.439Z,95789.72
2019-06-26T05:06:39.749Z,95789.72
2019-06-26T05:09:11.752Z,95793.20
2019-06-26T05:11:43.972Z,95789.59
2019-06-26T05:14:16.178Z,95784.36
2019-06-26T05:16:48.290Z,95787.06
2019-06-26T05:19:20.709Z,95787.06
2019-06-26T05:21:52.934Z,95788.56
2019-06-26T05:24:25.217Z,95790.01
2019-06-26T05:26:57.289Z,95795.35
2019-06-26T05:29:29.412Z,95783.46
2019-06-26T05:32:01.722Z,95785.24
2019-06-26T05:34:34.066Z,95796.07
2019-06-26T05:37:06.223Z,95792.28
2019-06-26T05:39:38.354Z,95797.97
2019-06-26T05:42:10.487Z,95800.67
2019-06-26T05:44:42.590Z,95792.83
2019-06-26T05:47:17.954Z,95794.95
2019-06-26T05:49:51.418Z,95801.16
2019-06-26T05:52:23.659Z,95799.75
2019-06-26T05:54:55.779Z,95803.88
2019-06-26T05:57:27.950Z,95807.96
2019-06-26T06:00:00.077Z,95811.75
2019-06-26T06:02:32.060Z,95813.99
2019-06-26T06:05:04.548Z,95813.84
2019-06-26T06:07:36.759Z,95820.73
2019-06-26T06:10:09.279Z,95824.87
2019-06-26T06:12:41.464Z,95826.82
2019-06-26T06:15:14.207Z,95831.33
2019-06-26T06:17:46.368Z,95831.87
2019-06-26T06:20:24.617Z,95831.54
2019-06-26T06:22:56.693Z,95842.37
2019-06-26T06:25:28.791Z,95839.90
2019-06-26T06:28:01.113Z,95830.34
2019-06-26T06:30:33.404Z,95830.59
2019-06-26T06:33:05.431Z,95830.86
2019-06-26T06:35:37.786Z,95828.05
2019-06-26T06:38:10.066Z,95835.75
2019-06-26T06:40:43.264Z,95835.31
2019-06-26T06:43:15.855Z,95835.92
2019-06-26T06:45:48.077Z,95833.84
2019-06-26T06:48:20.410Z,95841.27
2019-06-26T06:50:52.885Z,95836.98
2019-06-26T06:53:24.927Z,95832.46
2019-06-26T06:55:56.991Z,95838.38
2019-06-26T06:58:30.221Z,95833.91
2019-06-26T07:01:02.614Z,95834.72
2019-06-26T07:03:34.761Z,95844.18
2019-06-26T07:06:07.183Z,95832.34
2019-06-26T07:08:39.322Z,95830.94
2019-06-26T07:11:11.487Z,95833.03
2019-06-26T07:13:43.758Z,95838.45
2019-06-26T07:16:16.907Z,95836.00
2019-06-26T07:18:49.177Z,95834.23
2019-06-26T07:21:21.492Z,95829.77
2019-06-26T07:23:53.577Z,95837.97
2019-06-26T07:26:25.753Z,95843.12
2019-06-26T07:28:57.985Z,95843.02
2019-06-26T07:31:31.327Z,95838.00
2019-06-26T07:34:03.585Z,95848.73
2019-06-26T07:36:35.979Z,95837.64
2019-06-26T07:39:09.255Z,95848.69
2019-06-26T07:41:41.957Z,95851.02
2019-06-26T07:44:14.242Z,95853.48
2019-06-26T07:46:46.559Z,95857.83
2019-06-26T07:49:18.655Z,95851.88
2019-06-26T07:51:50.858Z,95854.95
2019-06-26T07:54:23.367Z,95852.17
2019-06-26T07:56:55.852Z,95853.81
2019-06-26T07:59:29.126Z,95845.38
2019-06-26T08:02:01.358Z,95849.11
2019-06-26T08:04:33.496Z,95858.59
2019-06-26T08:07:05.701Z,95856.29
2019-06-26T08:09:37.919Z,95864.22
2019-06-26T08:12:10.207Z,95848.45
2019-06-26T08:14:42.833Z,95849.34
2019-06-26T08:17:14.888Z,95843.43
2019-06-26T08:19:47.202Z,95847.48
2019-06-26T08:22:19.544Z,95853.94
2019-06-26T08:24:51.542Z,95846.63
2019-06-26T08:27:23.533Z,95848.14
2019-06-26T08:29:55.835Z,95847.75
2019-06-26T08:32:28.268Z,95857.94
2019-06-26T08:35:00.350Z,95861.42
2019-06-26T08:37:32.874Z,95863.23
2019-06-26T08:40:05.290Z,95860.25
2019-06-26T08:42:37.629Z,95862.78
2019-06-26T08:45:10.061Z,95863.14
2019-06-26T08:47:42.203Z,95872.34
2019-06-26T08:50:15.058Z,95875.13
2019-06-26T08:52:46.234Z,95869.79
2019-06-26T08:55:19.160Z,95876.68
2019-06-26T08:57:51.733Z,95871.66
2019-06-26T09:00:24.393Z,95869.99
2019-06-26T09:02:56.596Z,95874.22
2019-06-26T09:05:28.566Z,95871.38
2019-06-26T09:08:00.995Z,95865.25
2019-06-26T09:10:33.163Z,95859.61
2019-06-26T09:13:05.437Z,95871.36
2019-06-26T09:15:37.534Z,95874.73
2019-06-26T09:18:09.617Z,95872.27
2019-06-26T09:20:42.024Z,95869.21
2019-06-26T09:23:14.306Z,95869.22
2019-06-26T09:25:46.614Z,95853.13
2019-06-26T09:28:18.707Z,95856.17
2019-06-26T09:30:50.945Z,95850.45
2019-06-26T09:33:23.290Z,95855.67
2019-06-26T09:35:55.752Z,95843.20
2019-06-26T09:38:28.103Z,95847.52
2019-06-26T09:41:00.302Z,95838.36
2019-06-26T09:43:32.544Z,95846.16
2019-06-26T09:46:04.843Z,95846.34
2019-06-26T09:48:52.181Z,95843.96
2019-06-26T09:51:13.892Z,95843.96
2019-06-26T09:53:47.847Z,95840.70
2019-06-26T09:56:20.138Z,95842.67
2019-06-26T09:58:52.522Z,95840.34
2019-06-26T10:01:25.238Z,95841.32
2019-06-26T10:03:56.138Z,95835.69
2019-06-26T10:06:28.220Z,95832.57
2019-06-26T10:09:00.492Z,95833.97
2019-06-26T10:11:34.343Z,95836.85
2019-06-26T10:14:06.888Z,95832.50
2019-06-26T10:16:38.877Z,95825.15
2019-06-26T10:19:11.270Z,95825.30
2019-06-26T10:21:43.275Z,95821.00
2019-06-26T10:24:15.541Z,95819.00
2019-06-26T10:26:47.892Z,95819.94
2019-06-26T10:29:20.240Z,95816.48
2019-06-26T10:31:52.372Z,95812.90
2019-06-26T10:34:24.477Z,95815.17
2019-06-26T10:36:56.997Z,95803.95
2019-06-26T10:39:29.057Z,95805.88
2019-06-26T10:42:01.316Z,95803.33
2019-06-26T10:44:33.588Z,95807.14
2019-06-26T10:47:06.152Z,95809.25
2019-06-26T10:49:38.411Z,95808.09
2019-06-26T10:52:10.575Z,95807.27
2019-06-26T10:54:44.500Z,95809.56
2019-06-26T10:57:16.713Z,95808.02
2019-06-26T10:59:49.118Z,95808.02
2019-06-26T11:02:21.339Z,95797.94
2019-06-26T11:04:53.670Z,95803.88
2019-06-26T11:07:26.127Z,95792.75
2019-06-26T11:09:58.468Z,95796.04
2019-06-26T11:12:31.324Z,95797.70
2019-06-26T11:15:03.792Z,95782.22
2019-06-26T11:17:36.305Z,95790.22
2019-06-26T11:20:10.559Z,95793.42
2019-06-26T11:22:42.750Z,95787.95
2019-06-26T11:25:15.190Z,95787.27
2019-06-26T11:27:47.923Z,95787.59
2019-06-26T11:30:19.080Z,95780.31
2019-06-26T11:32:51.735Z,95775.24
2019-06-26T11:35:24.199Z,95777.22
2019-06-26T11:37:56.600Z,95769.53
2019-06-26T11:40:29.171Z,95772.88
2019-06-26T11:43:01.551Z,95771.85
2019-06-26T11:45:33.752Z,95758.56
2019-06-26T11:48:06.194Z,95763.23
2019-06-26T11:50:38.657Z,95759.92
2019-06-26T11:53:11.232Z,95762.77
2019-06-26T11:55:43.376Z,95745.56
2019-06-26T11:58:15.197Z,95745.66
2019-06-26T12:00:47.438Z,95749.81
2019-06-26T12:03:19.359Z,95749.12
2019-06-26T12:05:52.064Z,95748.38
2019-06-26T12:08:22.878Z,95742.83
2019-06-26T12:10:54.928Z,95746.45
2019-06-26T12:13:26.978Z,95743.59
2019-06-26T12:15:59.484Z,95742.64
2019-06-26T12:18:31.969Z,95740.03
2019-06-26T12:21:04.334Z,95731.80
2019-06-26T12:23:36.677Z,95727.58
2019-06-26T12:26:08.852Z,95736.50
2019-06-26T12:28:41.521Z,95728.98
2019-06-26T12:31:13.682Z,95729.02
2019-06-26T12:33:45.894Z,95722.02
2019-06-26T12:36:18.130Z,95733.33
2019-06-26T12:38:50.730Z,95723.99
2019-06-26T12:41:24.407Z,95726.89
2019-06-26T12:43:56.594Z,95718.58
2019-06-26T12:46:29.043Z,95721.67
2019-06-26T12:49:01.907Z,95716.24
2019-06-26T12:51:34.541Z,95710.64
2019-06-26T12:54:05.412Z,95713.66
2019-06-26T12:56:37.381Z,95716.32
2019-06-26T12:59:09.373Z,95711.77
2019-06-26T13:01:41.726Z,95713.83
2019-06-26T13:04:14.141Z,95706.84
2019-06-26T13:06:46.392Z,95713.79
2019-06-26T13:09:18.869Z,95704.09
2019-06-26T13:11:49.628Z,95707.86
2019-06-26T13:14:21.630Z,95695.78
2019-06-26T13:16:53.918Z,95681.16
2019-06-26T13:19:26.056Z,95684.56
2019-06-26T13:22:00.004Z,95691.20
2019-06-26T13:24:32.120Z,95681.52
2019-06-26T13:27:04.499Z,95683.20
2019-06-26T13:29:37.143Z,95688.50
2019-06-26T13:32:08.024Z,95682.80
2019-06-26T13:34:40.152Z,95677.17
2019-06-26T13:37:12.504Z,95676.12
2019-06-26T13:39:44.953Z,95669.93
2019-06-26T13:42:18.501Z,95670.03
2019-06-26T13:44:49.329Z,95671.01
2019-06-26T13:47:21.986Z,95672.73
2019-06-26T13:49:54.194Z,95674.27
2019-06-26T13:52:26.409Z,95670.78
2019-06-26T13:54:58.599Z,95675.23
2019-06-26T13:57:31.763Z,95670.89
2019-06-26T14:00:04.791Z,95669.06
2019-06-26T14:02:37.369Z,95661.64
2019-06-26T14:05:09.918Z,95660.61
2019-06-26T14:07:42.178Z,95665.20
2019-06-26T14:10:14.857Z,95662.03
2019-06-26T14:12:45.611Z,95664.55
2019-06-26T14:15:18.327Z,95665.77
2019-06-26T14:17:50.492Z,95657.78
2019-06-26T14:20:23.253Z,95659.47
2019-06-26T14:22:55.655Z,95653.25
2019-06-26T14:25:27.947Z,95653.95
2019-06-26T14:28:00.242Z,95653.31
2019-06-26T14:30:32.439Z,95647.48
2019-06-26T14:33:04.607Z,95653.56
2019-06-26T14:35:36.816Z,95656.58
2019-06-26T14:38:08.941Z,95651.30
2019-06-26T14:40:41.437Z,95653.34
2019-06-26T14:43:13.503Z,95654.33
2019-06-26T14:45:45.835Z,95651.78
2019-06-26T14:48:18.074Z,95638.34
2019-06-26T14:50:50.323Z,95639.55
2019-06-26T14:53:22.661Z,95643.31
2019-06-26T14:55:55.129Z,95643.03
2019-06-26T14:58:27.475Z,95635.38
2019-06-26T15:00:59.966Z,95627.02
2019-06-26T15:03:32.154Z,95635.70
2019-06-26T15:06:15.780Z,95627.44
2019-06-26T15:08:38.156Z,95625.92
2019-06-26T15:11:10.339Z,95628.33
2019-06-26T15:13:42.378Z,95620.98
2019-06-26T15:16:14.860Z,95622.88
2019-06-26T15:18:47.084Z,95628.33
2019-06-26T15:21:19.351Z,95628.53
2019-06-26T15:23:51.681Z,95620.28
2019-06-26T15:26:24.021Z,95628.98
2019-06-26T15:28:56.432Z,95628.36
2019-06-26T15:31:28.669Z,95628.38
2019-06-26T15:34:00.846Z,95627.82
2019-06-26T15:36:33.325Z,95629.28
2019-06-26T15:39:06.211Z,95624.23
2019-06-26T15:41:39.485Z,95624.95
2019-06-26T15:44:12.137Z,95626.05
2019-06-26T15:46:44.712Z,95623.98
2019-06-26T15:49:16.910Z,95623.43
2019-06-26T15:51:49.413Z,95623.83
2019-06-26T15:54:21.611Z,95629.11
2019-06-26T15:56:53.921Z,95625.35
2019-06-26T15:59:26.179Z,95616.08
2019-06-26T16:01:58.941Z,95616.23
2019-06-26T16:04:29.762Z,95610.16
2019-06-26T16:07:02.056Z,95616.95
2019-06-26T16:09:35.185Z,95615.98
2019-06-26T16:12:07.336Z,95620.27
2019-06-26T16:14:40.066Z,95624.13
2019-06-26T16:17:17.451Z,95626.72
2019-06-26T16:19:49.771Z,95631.59
2019-06-26T16:22:31.537Z,95643.41
2019-06-26T16:24:56.178Z,95652.36
2019-06-26T16:27:28.658Z,95650.20
2019-06-26T16:30:00.830Z,95655.72
2019-06-26T16:32:33.490Z,95658.91
2019-06-26T16:35:05.885Z,95650.38
2019-06-26T16:37:39.607Z,95660.52
2019-06-26T16:40:12.409Z,95650.94
2019-06-26T16:42:42.940Z,95657.08
2019-06-26T16:45:15.769Z,95648.13
2019-06-26T16:47:46.812Z,95642.28
2019-06-26T16:50:19.698Z,95636.22
2019-06-26T16:52:51.694Z,95630.48
2019-06-26T16:55:23.849Z,95627.11
2019-06-26T16:57:56.013Z,95625.61
2019-06-26T17:00:28.322Z,95622.26
2019-06-26T17:03:00.411Z,95622.75
2019-06-26T17:05:32.383Z,95631.46
2019-06-26T17:08:04.626Z,95641.31
2019-06-26T17:10:36.610Z,95644.57
2019-06-26T17:13:09.018Z,95629.09
2019-06-26T17:15:41.203Z,95625.41
2019-06-26T17:18:13.273Z,95625.07
2019-06-26T17:20:45.325Z,95619.77
2019-06-26T17:23:17.280Z,95610.78
2019-06-26T17:25:49.436Z,95607.71
2019-06-26T17:28:21.508Z,95612.92
2019-06-26T17:30:53.518Z,95621.92
2019-06-26T17:33:26.118Z,95629.88
2019-06-26T17:35:58.013Z,95623.52
2019-06-26T17:38:30.097Z,95620.25
2019-06-26T17:41:02.610Z,95617.02
2019-06-26T17:43:34.814Z,95620.88
2019-06-26T17:46:07.313Z,95620.20
2019-06-26T17:48:39.552Z,95628.14
2019-06-26T17:51:11.644Z,95615.72
2019-06-26T17:53:43.808Z,95605.18
2019-06-26T17:56:15.818Z,95609.41
2019-06-26T17:58:48.123Z,95593.78
2019-06-26T18:01:20.212Z,95591.25
2019-06-26T18:03:52.199Z,95595.36
2019-06-26T18:06:24.132Z,95591.38
2019-06-26T18:08:56.395Z,95600.22
2019-06-26T18:11:29.371Z,95600.22
2019-06-26T18:14:01.448Z,95603.98
2019-06-26T18:16:33.658Z,95608.73
2019-06-26T18:19:06.774Z,95608.70
2019-06-26T18:21:38.947Z,95611.27
2019-06-26T18:24:11.226Z,95615.73
2019-06-26T18:26:43.473Z,95613.33
2019-06-26T18:29:16.666Z,95616.01
2019-06-26T18:31:48.866Z,95624.45
2019-06-26T18:34:21.043Z,95629.03
2019-06-26T18:36:53.016Z,95628.23
2019-06-26T18:39:24.895Z,95633.40
2019-06-26T18:41:57.154Z,95639.98
2019-06-26T18:44:29.643Z,95640.05
2019-06-26T18:47:01.860Z,95640.50
2019-06-26T18:49:34.857Z,95639.90
2019-06-26T18:52:07.823Z,95654.83
2019-06-26T18:54:39.147Z,95655.24
2019-06-26T18:57:11.394Z,95653.89
2019-06-26T18:59:43.754Z,95655.33
2019-06-26T19:02:15.910Z,95662.65
2019-06-26T19:04:48.009Z,95658.14
2019-06-26T19:07:19.964Z,95655.19
2019-06-26T19:09:51.909Z,95655.32
2019-06-26T19:12:24.338Z,95655.31
2019-06-26T19:14:56.406Z,95657.92
2019-06-26T19:17:28.774Z,95664.27
2019-06-26T19:20:00.920Z,95658.60
2019-06-26T19:22:32.831Z,95664.81
2019-06-26T19:25:05.153Z,95663.72
2019-06-26T19:27:37.297Z,95660.55
2019-06-26T19:30:11.202Z,95653.12
2019-06-26T19:32:43.585Z,95666.39
2019-06-26T19:35:19.526Z,95666.39
2019-06-26T19:37:51.687Z,95676.61
2019-06-26T19:40:24.427Z,95674.25
2019-06-26T19:42:58.807Z,95667.03
2019-06-26T19:45:31.361Z,95672.91
2019-06-26T19:48:03.341Z,95666.16
2019-06-26T19:50:35.508Z,95672.83
2019-06-26T19:53:07.779Z,95669.98
2019-06-26T19:55:39.982Z,95674.67
2019-06-26T19:58:11.974Z,95672.14
2019-06-26T20:00:44.950Z,95672.08
2019-06-26T20:04:09.492Z,95678.94
2019-06-26T20:07:23.889Z,95687.66
2019-06-26T20:09:56.051Z,95686.62
2019-06-26T20:12:27.624Z,95694.96
2019-06-26T20:14:59.184Z,95693.39
2019-06-26T20:17:30.648Z,95690.81
2019-06-26T20:20:02.091Z,95697.73
2019-06-26T20:22:33.862Z,95698.98
2019-06-26T20:25:05.358Z,95693.58
2019-06-26T20:27:38.038Z,95702.42
2019-06-26T20:30:10.303Z,95691.36
2019-06-26T20:32:42.980Z,95694.60
2019-06-26T20:35:14.630Z,95696.86
2019-06-26T20:37:46.130Z,95702.55
2019-06-26T20:40:17.798Z,95701.78
2019-06-26T20:42:49.392Z,95697.41
2019-06-26T20:45:21.591Z,95691.09
2019-06-26T20:47:53.098Z,95690.98
2019-06-26T20:50:24.596Z,95686.13
2019-06-26T20:52:56.312Z,95686.64
2019-06-26T20:55:27.674Z,95688.45
2019-06-26T20:57:59.125Z,95681.57
2019-06-26T21:00:31.680Z,95677.55
2019-06-26T21:03:03.301Z,95670.22
2019-06-26T21:05:35.019Z,95682.50
2019-06-26T21:08:06.533Z,95674.23
2019-06-26T21:10:37.971Z,95674.53
2019-06-26T21:13:09.450Z,95675.27
2019-06-26T21:15:40.916Z,95670.13
2019-06-26T21:18:12.639Z,95668.06
2019-06-26T21:20:44.085Z,95675.72
2019-06-26T21:23:18.742Z,95669.20
2019-06-26T21:25:49.014Z,95669.67
2019-06-26T21:28:20.462Z,95673.16
2019-06-26T21:30:51.865Z,95673.24
2019-06-26T21:33:23.392Z,95669.48
2019-06-26T21:35:54.965Z,95667.38
2019-06-26T21:38:27.818Z,95673.34
2019-06-26T21:40:59.391Z,95674.18
2019-06-26T21:43:30.894Z,95674.03
2019-06-26T21:46:02.505Z,95674.03
2019-06-26T21:48:35.307Z,95671.34
2019-06-26T21:51:06.864Z,95677.56
2019-06-26T21:53:38.606Z,95671.58
2019-06-26T21:56:28.072Z,95661.80
2019-06-26T21:59:17.927Z,95668.46
2019-06-26T22:02:07.567Z,95666.85
2019-06-26T22:04:56.286Z,95672.57
2019-06-26T22:07:46.229Z,95663.76
2019-06-26T22:10:19.719Z,95659.57
2019-06-26T22:12:51.599Z,95664.14
2019-06-26T22:15:23.609Z,95659.23
2019-06-26T22:17:55.778Z,95657.68
2019-06-26T22:20:27.584Z,95657.70
2019-06-26T22:22:59.600Z,95662.88
2019-06-26T22:25:31.943Z,95652.15
2019-06-26T22:28:03.787Z,95659.50
2019-06-26T22:30:35.480Z,95655.55
2019-06-26T22:33:07.430Z,95649.22
2019-06-26T22:35:39.248Z,95646.39
2019-06-26T22:38:11.248Z,95639.73
2019-06-26T22:40:44.472Z,95636.38
2019-06-26T22:43:16.747Z,95637.75
2019-06-26T22:45:48.777Z,95638.59
2019-06-26T22:48:21.012Z,95641.61
2019-06-26T22:50:53.180Z,95637.29
2019-06-26T22:53:25.221Z,95641.90
2019-06-26T22:56:07.178Z,95645.95
2019-06-26T22:58:31.068Z,95645.41
2019-06-26T23:01:03.741Z,95639.22
2019-06-26T23:03:35.928Z,95639.00
2019-06-26T23:06:08.390Z,95634.97
2019-06-26T23:08:40.733Z,95631.64
2019-06-26T23:11:14.082Z,95627.55
2019-06-26T23:13:46.304Z,95627.99
2019-06-26T23:16:18.598Z,95629.34
2019-06-26T23:18:50.877Z,95624.66
2019-06-26T23:21:23.149Z,95627.73
2019-06-26T23:23:55.439Z,95628.42
2019-06-26T23:26:27.528Z,95628.47
2019-06-26T23:28:59.968Z,95626.94
2019-06-26T23:31:32.141Z,95631.26
2019-06-26T23:34:04.803Z,95633.14
2019-06-26T23:36:37.251Z,95628.34
2019-06-26T23:39:09.580Z,95625.93
2019-06-26T23:41:41.903Z,95626.47
2019-06-26T23:44:14.290Z,95621.91
2019-06-26T23:46:46.560Z,95621.91
2019-06-26T23:49:19.334Z,95624.64
2019-06-26T23:51:51.649Z,95619.82
2019-06-26T23:54:25.156Z,95624.45
2019-06-26T23:56:57.601Z,95617.51
2019-06-26T23:59:30.001Z,95616.72
